LL60 weather

Nitzana West Airport
Nitzana, Southern District, Israel

Public forecast

Using degrees Celsius for public forecast. Weather courtesy of forecast.io.

METAR (pilot weather report)

Closest report is El Arish International Airport, 33.8 nm (62.6 km) WNW. Retrieved 2019/03/22 22:00 UTC (41 minutes ago):

HEAR 222200Z 17002KT CAVOK 13/10 Q1015 NOSIG

TAF (pilot weather forecast)

Forecast is more than 12 hours old.

Closest forecast is El Gora Airport, 20.4 nm (37.9 km) NW. Retrieved 2018/10/31 07:00 UTC (5 months ago):

TAF HEGR 310700Z 3107/0112 34009KT 9999 SCT020 BECMG 3119/3121 VRB03KT CAVOK BECMG 0107/0109 36008KT